Flight Track Log - Related Links

Times and Time Zones

All times are in EDT time to prevent confusion due to time zone crossing. See the SKW5550 flight status page for this flight to view local times or setup timezone preferences in your user account.

Time Position Orientation Groundspeed Altitude Reporting Facility
EDT Latitude Longitude Course Direction KTS MPH feet Rate Location/Type
Wed 05:06:35 PM 39.8450 -104.7717 281° West 200 230 6,700  Level Denver Center
Wed 05:07:37 PM 39.8850 -104.8486 304° West 240 276 8,100 1,597 Climbing Denver Center
Wed 05:08:39 PM 39.9044 -104.9533 284° West 291 335 10,000 1,984 Climbing Denver Center
Wed 05:09:41 PM 39.9169 -105.0728 278° West 309 356 12,200 1,887 Climbing Denver Center
Wed 05:10:43 PM 39.9275 -105.1819 277° West 307 353 13,900 1,548 Climbing Denver Center
Wed 05:11:45 PM 39.9383 -105.3008 277° West 330 380 15,400 1,548 Climbing Denver Center
Wed 05:12:00 PM 39.8623 -105.5313 281° West  Level Estimated
Wed 05:12:47 PM 39.9517 -105.4314 278° West 338 389 17,100  Level Denver Center
Wed 05:13:49 PM 39.9636 -105.5542 277° West 343 395 18,500 1,258 Climbing Denver Center
Wed 05:15:00 PM 39.9340 -105.7235 277° West  Level FlightAware Approximate
Wed 05:15:53 PM 39.9719 -105.8128 277° West 348 400 21,000  Level Denver Center
Wed 05:16:55 PM 39.9753 -105.9481 272° West 347 399 22,100 816 Climbing Denver Center
Wed 05:17:58 PM 39.9831 -106.0767 275° West 355 409 22,700 672 Climbing Denver Center
Wed 05:19:00 PM 39.9919 -106.2075 275° West 362 417 23,500 919 Climbing Denver Center
Wed 05:20:02 PM 39.9969 -106.3406 273° West 367 422 24,600 629 Climbing Denver Center
Wed 05:21:04 PM 40.0083 -106.4731 276° West 368 423 24,800 435 Climbing Denver Center
Wed 05:22:06 PM 40.0314 -106.6228 281° West 384 442 25,500 726 Climbing Denver Center
Wed 05:23:08 PM 40.0553 -106.7742 282° West 383 441 26,300 629 Climbing Denver Center
Wed 05:24:10 PM 40.0747 -106.9042 281° West 382 440 26,800 581 Climbing Denver Center
Wed 05:25:12 PM 40.0981 -107.0569 281° West 385 443 27,500 677 Climbing Denver Center
Wed 05:26:14 PM 40.1181 -107.1869 281° West 383 441 28,200 677 Climbing Denver Center
Wed 05:27:16 PM 40.1400 -107.3372 281° West 379 436 28,900 677 Climbing Denver Center
Wed 05:28:18 PM 40.1583 -107.4656 281° West 375 432 29,600 726 Climbing Denver Center
Wed 05:29:20 PM 40.1806 -107.6139 281° West 373 429 30,400 726 Climbing Denver Center
Wed 05:30:22 PM 40.1983 -107.7403 280° West 371 427 31,100 581 Climbing Denver Center
Wed 05:31:24 PM 40.2161 -107.8669 280° West 371 427 31,600 435 Climbing Denver Center
Wed 05:32:26 PM 40.2383 -108.0186 281° West 379 436 32,000 194 Climbing Denver Center
Wed 05:33:28 PM 40.2581 -108.1492 281° West 382 440 32,000  Level Denver Center
Wed 05:34:30 PM 40.2792 -108.3056 280° West 389 448 32,000  Level Denver Center
Wed 05:35:10 PM 40.2919 -108.3978 280° West 395 455 32,000  Level Salt Lake Center
Wed 05:36:12 PM 40.3133 -108.5581 280° West 401 461 32,000  Level Salt Lake Center
Wed 05:37:14 PM 40.3322 -108.6981 280° West 406 467 32,000  Level Salt Lake Center
Wed 05:38:15 PM 40.3547 -108.8614 280° West 413 475 32,000  Level Salt Lake Center
Wed 05:39:17 PM 40.3733 -109.0042 280° West 417 480 32,000  Level Salt Lake Center
Wed 05:40:19 PM 40.3919 -109.1469 280° West 417 480 32,000  Level Salt Lake Center
Wed 05:41:21 PM 40.4133 -109.3136 280° West 416 479 32,000  Level Salt Lake Center
Wed 05:42:23 PM 40.4328 -109.4589 280° West 422 486 32,000  Level Salt Lake Center
Wed 05:43:25 PM 40.4539 -109.6281 279° West 422 486 32,000  Level Salt Lake Center
Wed 05:44:27 PM 40.4733 -109.7733 280° West 423 487 32,000  Level Salt Lake Center
Wed 05:45:29 PM 40.4939 -109.9425 279° West 421 484 32,000  Level Salt Lake Center
Wed 05:46:31 PM 40.5100 -110.0872 278° West 419 482 32,000  Level Salt Lake Center
Wed 05:47:32 PM 40.5253 -110.2553 277° West 416 479 32,000  Level Salt Lake Center
Wed 05:48:34 PM 40.5389 -110.3978 277° West 413 475 32,000  Level Salt Lake Center
Wed 05:49:36 PM 40.5547 -110.5644 277° West 412 474 32,000  Level Salt Lake Center
Wed 05:50:38 PM 40.5692 -110.7164 277° West 413 475 32,000  Level Salt Lake Center
Wed 05:51:40 PM 40.5831 -110.8661 277° West 413 475 32,000  Level Salt Lake Center
Wed 05:52:42 PM 40.5958 -111.0175 276° West 416 479 32,000  Level Salt Lake Center
Wed 05:53:44 PM 40.6103 -111.1678 277° West 415 478 32,000  Level Salt Lake Center
Wed 05:54:46 PM 40.6231 -111.3181 276° West 413 475 32,000  Level Salt Lake Center
Wed 05:55:47 PM 40.6358 -111.4672 276° West 410 472 32,000  Level Salt Lake Center
Wed 05:56:49 PM 40.6489 -111.6186 277° West 414 476 32,000  Level Salt Lake Center
Wed 05:57:51 PM 40.6639 -111.7992 276° West 412 474 32,000  Level Salt Lake Center
Wed 05:58:53 PM 40.6758 -111.9497 276° West 410 472 32,000  Level Salt Lake Center
Wed 05:59:55 PM 40.6875 -112.1014 276° West 413 475 32,000  Level Salt Lake Center
Wed 06:00:57 PM 40.7003 -112.2539 276° West 417 480 32,000  Level Salt Lake Center
Wed 06:01:59 PM 40.7125 -112.4053 276° West 414 476 32,000  Level Salt Lake Center
Wed 06:03:00 PM 40.7228 -112.5564 275° West 413 475 32,000  Level Salt Lake Center
Wed 06:04:02 PM 40.7233 -112.7072 270° West 410 472 32,000  Level Salt Lake Center
Wed 06:05:04 PM 40.7253 -112.8569 271° West 409 471 32,000  Level Salt Lake Center
Wed 06:06:06 PM 40.7253 -113.0361 270° West 409 471 32,000  Level Salt Lake Center
Wed 06:07:08 PM 40.7272 -113.1869 271° West 411 473 32,000  Level Salt Lake Center
Wed 06:08:10 PM 40.7286 -113.3378 271° West 412 474 32,000  Level Salt Lake Center
Wed 06:09:12 PM 40.7269 -113.4883 269° West 413 475 32,000  Level Salt Lake Center
Wed 06:10:14 PM 40.7272 -113.6425 270° West 419 482 32,000  Level Salt Lake Center
Wed 06:11:16 PM 40.7267 -113.7942 270° West 417 480 32,000  Level Salt Lake Center
Wed 06:12:17 PM 40.7197 -113.9781 267° West 418 481 32,000  Level Salt Lake Center
Wed 06:13:19 PM 40.7153 -114.1328 268° West 422 486 32,000  Level Salt Lake Center
Wed 06:14:21 PM 40.7089 -114.2875 267° West 424 488 32,000  Level Salt Lake Center
Wed 06:15:23 PM 40.7036 -114.4422 267° West 424 488 32,000  Level Salt Lake Center
Wed 06:16:25 PM 40.7003 -114.6000 268° West 430 495 32,000  Level Salt Lake Center
Wed 06:17:27 PM 40.6922 -114.7539 266° West 426 490 32,000  Level Salt Lake Center
Wed 06:18:29 PM 40.6842 -114.9322 267° West 425 489 32,000  Level Salt Lake Center
Wed 06:19:31 PM 40.6753 -115.0806 266° West 425 489 32,000  Level Salt Lake Center
Wed 06:20:33 PM 40.6619 -115.2533 264° West 425 489 32,000  Level Salt Lake Center
Wed 06:22:05 PM 40.6536 -115.4786 267° West 427 491 32,000  Level Oakland Center
Wed 06:22:37 PM 40.6489 -115.5781 266° West 428 493 32,000  Level Salt Lake Center
Wed 06:23:39 PM 40.6419 -115.7269 267° West 427 491 32,000  Level Salt Lake Center
Wed 06:24:40 PM 40.6317 -115.9014 266° West 429 494 32,000  Level Salt Lake Center
Wed 06:25:42 PM 40.6233 -116.0519 266° West 430 495 32,000  Level Salt Lake Center
Wed 06:26:44 PM 40.6147 -116.2019 266° West 430 495 32,000  Level Salt Lake Center
Wed 06:27:46 PM 40.6028 -116.3789 265° West 435 501 32,000  Level Salt Lake Center
Wed 06:28:48 PM 40.5947 -116.5289 266° West 433 498 32,000  Level Salt Lake Center
Wed 06:29:50 PM 40.5836 -116.7039 265° West 433 498 32,000  Level Salt Lake Center
Wed 06:30:52 PM 40.5736 -116.8533 265° West 435 501 32,000  Level Salt Lake Center
Wed 06:31:53 PM 40.5353 -117.0172 253° West 431 496 32,000  Level Salt Lake Center
Wed 06:32:55 PM 40.4781 -117.1728 244° Southwest 429 494 32,000  Level Salt Lake Center
Wed 06:33:57 PM 40.4286 -117.3081 244° Southwest 431 496 32,000  Level Salt Lake Center
Wed 06:34:59 PM 40.3786 -117.4436 244° Southwest 432 497 32,000  Level Salt Lake Center
Wed 06:36:01 PM 40.3194 -117.6022 244° Southwest 435 501 32,000  Level Salt Lake Center
Wed 06:37:02 PM 40.2697 -117.7394 245° Southwest 435 501 32,000  Level Salt Lake Center
Wed 06:38:04 PM 40.2089 -117.8975 243° Southwest 436 502 32,000  Level Salt Lake Center
Wed 06:39:06 PM 40.1578 -118.0353 244° Southwest 439 505 32,000  Level Salt Lake Center
Wed 06:40:08 PM 40.0958 -118.1969 243° Southwest 444 511 32,000  Level Salt Lake Center
Wed 06:41:10 PM 40.0392 -118.3483 244° Southwest 444 511 32,000  Level Salt Lake Center
Wed 06:42:11 PM 39.9839 -118.4928 243° Southwest 446 513 32,000  Level Salt Lake Center
Wed 06:43:13 PM 39.9281 -118.6372 243° Southwest 448 516 32,000  Level Salt Lake Center
Wed 06:44:15 PM 39.8725 -118.7836 244° Southwest 453 521 32,000  Level Salt Lake Center
Wed 06:45:17 PM 39.8158 -118.9297 243° Southwest 456 525 32,000 -195 Level Salt Lake Center
Wed 06:46:18 PM 39.7592 -119.0758 243° Southwest 458 527 31,600 -780 Descending Salt Lake Center
Wed 06:47:20 PM 39.6864 -119.2614 243° Southwest 482 555 30,400 -1,141 Descending Salt Lake Center
Wed 06:48:40 PM 39.6131 -119.4481 243° Southwest 481 554 28,900 -1,268 Descending Oakland Center
Wed 06:49:42 PM 39.5583 -119.5878 243° Southwest 443 510 27,400 -1,610 Descending Oakland Center
Wed 06:50:43 PM 39.4789 -119.7486 237° Southwest 443 510 25,600 -1,623 Descending Oakland Center
Wed 06:51:44 PM 39.4042 -119.8783 233° Southwest 450 518 24,100 -1,463 Descending Oakland Center
Wed 06:52:46 PM 39.3286 -120.0092 233° Southwest 455 524 22,600 -1,512 Descending Oakland Center
Wed 06:53:47 PM 39.2503 -120.1506 234° Southwest 453 521 21,000 -1,525 Descending Oakland Center
Wed 06:54:48 PM 39.1783 -120.2783 234° Southwest 442 509 19,500 -1,623 Descending Oakland Center
Wed 06:55:49 PM 39.1400 -120.4258 252° West 434 499 17,700 -1,610 Descending Oakland Center
Wed 06:56:51 PM 39.1036 -120.5694 252° West 425 489 16,200 -1,463 Descending Oakland Center
Wed 06:57:52 PM 39.0694 -120.7042 252° West 400 460 14,700 -1,525 Descending Oakland Center
Wed 06:58:53 PM 39.0386 -120.8244 252° West 365 420 13,100 -829 Descending Oakland Center
Wed 06:59:55 PM 39.0083 -120.9411 252° West 349 402 13,000 -341 Descending Oakland Center
Wed 07:00:56 PM 38.9783 -121.0578 252° West 346 398 12,400 -1,180 Descending Oakland Center
Wed 07:01:57 PM 38.9508 -121.1633 252° West 325 374 10,600 -1,180 Descending Oakland Center
Wed 07:02:58 PM 38.9194 -121.2819 251° West 301 346 10,000 -293 Descending Oakland Center
Wed 07:04:00 PM 38.8933 -121.3806 251° West 294 338 10,000 -829 Level Oakland Center
Wed 07:05:01 PM 38.8822 -121.4864 262° West 299 344 8,300 -1,721 Descending Oakland Center
Wed 07:06:02 PM 38.8714 -121.5856 262° West 290 334 6,500 -1,770 Descending Oakland Center
Wed 07:07:03 PM 38.8606 -121.6819 262° West 278 320 4,700 -1,659 Descending Oakland Center
Wed 07:08:05 PM 38.7978 -121.7136 201° Southwest 276 318 3,100 -829 Descending Oakland Center
Wed 07:09:06 PM 38.7286 -121.7042 174° South 263 303 3,000 -49 Descending Oakland Center
Wed 07:10:07 PM 38.6628 -121.6939 173° South 245 282 3,000 -98 Level Oakland Center
Wed 07:11:08 PM 38.5881 -121.6808 172° South 232 267 2,800 -488 Descending Oakland Center
Wed 07:12:10 PM 38.5694 -121.6242 113° Southeast 211 243 2,000 -634 Descending Oakland Center
Wed 07:13:11 PM 38.6008 -121.5814 47° Northeast 171 197 1,500 -590 Descending Oakland Center
Wed 07:14:12 PM 38.6439 -121.5817 360° North 158 182 800 -639 Descending Oakland Center
Wed 07:15:13 PM 38.6853 -121.5814 360° North 142 163 200 -590 Descending Oakland Center

Login

Don't have an account? Register now (free) for customized features, flight alerts, and more!